This is the latest recevied weather packets stored in our database for station/object K8WEH. If no packets are shown the sender has not sent any weather packets the latest 1 day(s).
| Time | Temp. | Humidity | Pressure | Rain* | Wind** | Luminosity | Snow |
|---|---|---|---|---|---|---|---|
| 1778024723 | 15.56° C | 59% | 1008.7 hPa | 0 mm | 0 m/s | - | - |
| 1778024422 | 15.56° C | 61% | 1008.7 hPa | 0 mm | 0 m/s | - | - |
| 1778024120 | 15.56° C | 63% | 1009 hPa | 0.25 mm | 0 m/s | - | - |
| 1778023821 | 15.56° C | 65% | 1009.1 hPa | 0.25 mm | 0 m/s | - | - |
| 1778023519 | 15.56° C | 66% | 1009.1 hPa | 0.25 mm | 0 m/s | - | - |
| 1778023219 | 16.11° C | 67% | 1009.3 hPa | 0.51 mm | 0 m/s | - | - |
| 1778022919 | 16.11° C | 70% | 1009.4 hPa | 0.51 mm | 0 m/s | - | - |
| 1778022619 | 16.11° C | 70% | 1009.6 hPa | 0.51 mm | 0 m/s | - | - |
| 1778022317 | 16.11° C | 71% | 1009.7 hPa | 0.51 mm | 0 m/s | - | - |
| 1778022024 | 16.11° C | 72% | 1009.8 hPa | 0.51 mm | 0 m/s | - | - |
| 1778021716 | 16.67° C | 73% | 1009.9 hPa | 0.51 mm | 0 m/s | - | - |
| 1778021414 | 16.67° C | 74% | 1010.1 hPa | 0.51 mm | 0 m/s | - | - |
| 1778021113 | 17.22° C | 74% | 1010.4 hPa | 0.51 mm | 0 m/s | - | - |
| 1778020811 | 17.22° C | 74% | 1010.4 hPa | 0.51 mm | 0.45 m/s, 101° | - | - |
| 1778020511 | 17.78° C | 72% | 1010.4 hPa | 0.25 mm | 0.45 m/s, 101° | - | - |
| 1778020216 | 18.33° C | 71% | 1010.2 hPa | 0.25 mm | 0.45 m/s, 84° | - | - |
| 1778019911 | 18.89° C | 70% | 1010.2 hPa | 0.25 mm | 0.45 m/s, 204° | - | - |
| 1778019610 | 18.89° C | 68% | 1010.1 hPa | 0 mm | 0 m/s | - | - |
| 1778019310 | 19.44° C | 68% | 1010.1 hPa | 0 mm | 0.45 m/s, 236° | - | - |
| 1778019009 | 19.44° C | 65% | 1010.1 hPa | 0 mm | 0.45 m/s, 102° | - | - |
| 1778018708 | 19.44° C | 64% | 1010 hPa | 0 mm | 0 m/s | - | - |
| 1778018409 | 20° C | 63% | 1009.9 hPa | 0 mm | 0 m/s | - | - |
| 1778018108 | 20° C | 64% | 1009.7 hPa | 0 mm | 0.45 m/s, 126° | - | - |
| 1778017808 | 20° C | 62% | 1009.6 hPa | 0 mm | 0 m/s | - | - |
| 1778017508 | 20° C | 60% | 1009.6 hPa | 0 mm | 0 m/s | - | - |
* Rain latest hour (hover to see other rain measurements)
** Current wind speed in m/s (hover to see current wind gust speed)